sensor_id;sensor_type;location;lat;lon;timestamp;pressure;altitude;pressure_sealevel;temperature;humidity
11676;BME280;5894;42.768;23.404;2022-12-07T00:00:13;95667.66;;;7.09;100.00
11676;BME280;5894;42.768;23.404;2022-12-07T00:02:40;95666.88;;;7.08;100.00
11676;BME280;5894;42.768;23.404;2022-12-07T00:05:07;95662.38;;;7.14;100.00
11676;BME280;5894;42.768;23.404;2022-12-07T00:07:34;95650.63;;;7.06;100.00
11676;BME280;5894;42.768;23.404;2022-12-07T00:10:03;95649.28;;;7.09;100.00
11676;BME280;5894;42.768;23.404;2022-12-07T00:12:30;95647.28;;;7.00;100.00
11676;BME280;5894;42.768;23.404;2022-12-07T00:14:57;95648.06;;;7.01;100.00
11676;BME280;5894;42.768;23.404;2022-12-07T00:17:23;95647.25;;;7.06;100.00
11676;BME280;5894;42.768;23.404;2022-12-07T00:19:50;95645.88;;;7.08;100.00
11676;BME280;5894;42.768;23.404;2022-12-07T00:22:17;95656.09;;;7.10;100.00
11676;BME280;5894;42.768;23.404;2022-12-07T00:24:44;95651.38;;;7.12;100.00
11676;BME280;5894;42.768;23.404;2022-12-07T00:27:12;95662.81;;;7.21;100.00
11676;BME280;5894;42.768;23.404;2022-12-07T00:29:39;95662.00;;;7.25;100.00
11676;BME280;5894;42.768;23.404;2022-12-07T00:32:06;95658.88;;;7.23;100.00
11676;BME280;5894;42.768;23.404;2022-12-07T00:34:32;95669.09;;;7.25;100.00
11676;BME280;5894;42.768;23.404;2022-12-07T00:36:59;95666.69;;;7.28;100.00
11676;BME280;5894;42.768;23.404;2022-12-07T00:39:26;95671.88;;;7.33;100.00
11676;BME280;5894;42.768;23.404;2022-12-07T00:41:53;95677.38;;;7.37;100.00
11676;BME280;5894;42.768;23.404;2022-12-07T00:44:21;95669.25;;;7.33;100.00
11676;BME280;5894;42.768;23.404;2022-12-07T00:46:48;95674.25;;;7.35;100.00
11676;BME280;5894;42.768;23.404;2022-12-07T00:49:15;95670.31;;;7.32;100.00
11676;BME280;5894;42.768;23.404;2022-12-07T00:51:41;95667.69;;;7.32;100.00
11676;BME280;5894;42.768;23.404;2022-12-07T00:54:08;95662.34;;;7.43;100.00
11676;BME280;5894;42.768;23.404;2022-12-07T00:56:35;95668.75;;;7.31;100.00
11676;BME280;5894;42.768;23.404;2022-12-07T00:59:03;95663.78;;;7.30;100.00
11676;BME280;5894;42.768;23.404;2022-12-07T01:01:34;95656.41;;;7.32;100.00
11676;BME280;5894;42.768;23.404;2022-12-07T01:04:01;95641.81;;;7.26;100.00
11676;BME280;5894;42.768;23.404;2022-12-07T01:06:28;95653.53;;;7.33;100.00
11676;BME280;5894;42.768;23.404;2022-12-07T01:08:55;95650.13;;;7.33;100.00
11676;BME280;5894;42.768;23.404;2022-12-07T01:11:24;95647.78;;;7.31;100.00
11676;BME280;5894;42.768;23.404;2022-12-07T01:13:52;95658.03;;;7.28;100.00
11676;BME280;5894;42.768;23.404;2022-12-07T01:16:20;95656.69;;;7.30;100.00
11676;BME280;5894;42.768;23.404;2022-12-07T01:18:51;95672.81;;;7.19;100.00
11676;BME280;5894;42.768;23.404;2022-12-07T01:21:20;95660.19;;;7.21;100.00
11676;BME280;5894;42.768;23.404;2022-12-07T01:23:48;95650.75;;;7.20;100.00
11676;BME280;5894;42.768;23.404;2022-12-07T01:26:16;95647.31;;;7.24;100.00
11676;BME280;5894;42.768;23.404;2022-12-07T01:28:44;95634.25;;;7.19;100.00
11676;BME280;5894;42.768;23.404;2022-12-07T01:31:13;95636.09;;;7.19;100.00
11676;BME280;5894;42.768;23.404;2022-12-07T01:33:42;95642.97;;;7.15;100.00
11676;BME280;5894;42.768;23.404;2022-12-07T01:36:13;95636.41;;;7.12;100.00
11676;BME280;5894;42.768;23.404;2022-12-07T01:38:40;95632.75;;;7.13;100.00
11676;BME280;5894;42.768;23.404;2022-12-07T01:41:08;95646.41;;;7.10;100.00
11676;BME280;5894;42.768;23.404;2022-12-07T01:43:35;95634.06;;;7.11;100.00
11676;BME280;5894;42.768;23.404;2022-12-07T01:46:03;95639.56;;;7.14;100.00
11676;BME280;5894;42.768;23.404;2022-12-07T01:48:32;95645.78;;;7.18;100.00
11676;BME280;5894;42.768;23.404;2022-12-07T01:51:03;95593.13;;;6.86;100.00
11676;BME280;5894;42.768;23.404;2022-12-07T01:53:35;95603.81;;;6.94;100.00
11676;BME280;5894;42.768;23.404;2022-12-07T01:56:03;95632.47;;;7.15;100.00
11676;BME280;5894;42.768;23.404;2022-12-07T01:58:29;95629.56;;;7.16;100.00
11676;BME280;5894;42.768;23.404;2022-12-07T02:00:56;95625.03;;;7.22;100.00
11676;BME280;5894;42.768;23.404;2022-12-07T02:03:27;95626.88;;;7.21;100.00
11676;BME280;5894;42.768;23.404;2022-12-07T02:05:57;95621.72;;;7.16;100.00
11676;BME280;5894;42.768;23.404;2022-12-07T02:08:25;95622.63;;;7.02;100.00
11676;BME280;5894;42.768;23.404;2022-12-07T02:10:54;95621.88;;;6.96;100.00
11676;BME280;5894;42.768;23.404;2022-12-07T02:13:26;95582.25;;;6.74;100.00
11676;BME280;5894;42.768;23.404;2022-12-07T02:16:06;95614.53;;;6.98;100.00
11676;BME280;5894;42.768;23.404;2022-12-07T02:18:45;95611.63;;;6.99;100.00
11676;BME280;5894;42.768;23.404;2022-12-07T02:21:22;95609.59;;;6.91;100.00
11676;BME280;5894;42.768;23.404;2022-12-07T02:24:14;95622.66;;;6.96;100.00
11676;BME280;5894;42.768;23.404;2022-12-07T02:27:30;95612.47;;;6.95;100.00
11676;BME280;5894;42.768;23.404;2022-12-07T02:30:04;95614.84;;;6.91;100.00
11676;BME280;5894;42.768;23.404;2022-12-07T02:32:42;95570.47;;;6.71;100.00
11676;BME280;5894;42.768;23.404;2022-12-07T02:35:12;95606.66;;;6.98;100.00
11676;BME280;5894;42.768;23.404;2022-12-07T02:37:42;95604.63;;;6.90;100.00
11676;BME280;5894;42.768;23.404;2022-12-07T02:40:18;95609.34;;;6.93;100.00
11676;BME280;5894;42.768;23.404;2022-12-07T02:42:49;95604.63;;;6.90;100.00
11676;BME280;5894;42.768;23.404;2022-12-07T02:45:21;95602.28;;;6.88;100.00
11676;BME280;5894;42.768;23.404;2022-12-07T02:47:51;95597.00;;;6.93;100.00
11676;BME280;5894;42.768;23.404;2022-12-07T02:50:20;95598.69;;;6.79;100.00
11676;BME280;5894;42.768;23.404;2022-12-07T02:52:47;95598.19;;;6.77;100.00
11676;BME280;5894;42.768;23.404;2022-12-07T02:55:15;95602.19;;;6.70;100.00
11676;BME280;5894;42.768;23.404;2022-12-07T02:57:55;95598.78;;;6.69;100.00
11676;BME280;5894;42.768;23.404;2022-12-07T03:00:31;95598.97;;;6.78;100.00
11676;BME280;5894;42.768;23.404;2022-12-07T03:03:05;95603.50;;;6.72;100.00
11676;BME280;5894;42.768;23.404;2022-12-07T03:05:49;95600.09;;;6.72;100.00
11676;BME280;5894;42.768;23.404;2022-12-07T03:08:27;95605.09;;;6.68;100.00
11676;BME280;5894;42.768;23.404;2022-12-07T03:10:59;95599.13;;;6.62;100.00
11676;BME280;5894;42.768;23.404;2022-12-07T03:13:30;95586.59;;;6.54;100.00
11676;BME280;5894;42.768;23.404;2022-12-07T03:16:05;95589.03;;;6.46;100.00
11676;BME280;5894;42.768;23.404;2022-12-07T03:18:37;95581.03;;;6.27;100.00
11676;BME280;5894;42.768;23.404;2022-12-07T03:21:10;95527.41;;;5.80;100.00
11676;BME280;5894;42.768;23.404;2022-12-07T03:23:40;95568.22;;;6.25;100.00
11676;BME280;5894;42.768;23.404;2022-12-07T03:26:10;95573.94;;;6.33;100.00
11676;BME280;5894;42.768;23.404;2022-12-07T03:28:42;95570.50;;;6.37;100.00
11676;BME280;5894;42.768;23.404;2022-12-07T03:31:14;95582.09;;;6.26;100.00
11676;BME280;5894;42.768;23.404;2022-12-07T03:33:47;95579.41;;;6.36;100.00
11676;BME280;5894;42.768;23.404;2022-12-07T03:36:19;95581.28;;;6.31;100.00
11676;BME280;5894;42.768;23.404;2022-12-07T03:38:51;95581.56;;;6.29;100.00
11676;BME280;5894;42.768;23.404;2022-12-07T03:41:22;95574.75;;;6.28;100.00
11676;BME280;5894;42.768;23.404;2022-12-07T03:43:50;95587.06;;;6.28;100.00
11676;BME280;5894;42.768;23.404;2022-12-07T03:46:24;95590.00;;;6.21;100.00
11676;BME280;5894;42.768;23.404;2022-12-07T03:48:59;95589.50;;;6.19;100.00
11676;BME280;5894;42.768;23.404;2022-12-07T03:51:34;95589.28;;;6.10;100.00
11676;BME280;5894;42.768;23.404;2022-12-07T03:54:09;95593.16;;;6.18;100.00
11676;BME280;5894;42.768;23.404;2022-12-07T03:56:37;95593.41;;;6.21;100.00
11676;BME280;5894;42.768;23.404;2022-12-07T03:59:05;95595.25;;;6.21;100.00
11676;BME280;5894;42.768;23.404;2022-12-07T04:01:34;95575.88;;;6.17;100.00
11676;BME280;5894;42.768;23.404;2022-12-07T04:04:01;95579.00;;;6.19;100.00
11676;BME280;5894;42.768;23.404;2022-12-07T04:06:28;95583.19;;;6.20;100.00
11676;BME280;5894;42.768;23.404;2022-12-07T04:08:54;95580.84;;;6.18;100.00
11676;BME280;5894;42.768;23.404;2022-12-07T04:11:21;95580.91;;;6.08;100.00
11676;BME280;5894;42.768;23.404;2022-12-07T04:13:48;95580.66;;;6.05;100.00
11676;BME280;5894;42.768;23.404;2022-12-07T04:16:34;95571.81;;;5.96;100.00
11676;BME280;5894;42.768;23.404;2022-12-07T04:19:00;95576.47;;;6.04;100.00
11676;BME280;5894;42.768;23.404;2022-12-07T04:21:27;95572.28;;;6.08;100.00
11676;BME280;5894;42.768;23.404;2022-12-07T04:23:54;95533.50;;;5.71;100.00
11676;BME280;5894;42.768;23.404;2022-12-07T04:26:21;95574.44;;;5.96;100.00
11676;BME280;5894;42.768;23.404;2022-12-07T04:28:47;95570.50;;;5.98;100.00
11676;BME280;5894;42.768;23.404;2022-12-07T04:31:14;95571.81;;;5.96;100.00
11676;BME280;5894;42.768;23.404;2022-12-07T04:33:42;95577.41;;;5.79;100.00
11676;BME280;5894;42.768;23.404;2022-12-07T04:36:09;95569.03;;;5.77;100.00
11676;BME280;5894;42.768;23.404;2022-12-07T04:38:36;95566.41;;;5.77;100.00
11676;BME280;5894;42.768;23.404;2022-12-07T04:41:05;95518.44;;;5.42;100.00
11676;BME280;5894;42.768;23.404;2022-12-07T04:43:32;95573.22;;;5.78;100.00
11676;BME280;5894;42.768;23.404;2022-12-07T04:45:59;95579.22;;;5.78;100.00
11676;BME280;5894;42.768;23.404;2022-12-07T04:48:26;95576.06;;;5.81;100.00
11676;BME280;5894;42.768;23.404;2022-12-07T04:50:54;95587.28;;;5.87;100.00
11676;BME280;5894;42.768;23.404;2022-12-07T04:53:21;95581.78;;;5.94;100.00
11676;BME280;5894;42.768;23.404;2022-12-07T04:55:48;95580.97;;;5.98;100.00
11676;BME280;5894;42.768;23.404;2022-12-07T04:58:15;95557.78;;;5.71;100.00
11676;BME280;5894;42.768;23.404;2022-12-07T05:00:42;95596.44;;;5.95;100.00
11676;BME280;5894;42.768;23.404;2022-12-07T05:03:09;95560.94;;;5.73;100.00
11676;BME280;5894;42.768;23.404;2022-12-07T05:05:35;95580.53;;;5.81;100.00
11676;BME280;5894;42.768;23.404;2022-12-07T05:08:04;95582.84;;;5.87;100.00
11676;BME280;5894;42.768;23.404;2022-12-07T05:10:30;95585.97;;;5.95;100.00
11676;BME280;5894;42.768;23.404;2022-12-07T05:12:57;95586.22;;;5.93;100.00
11676;BME280;5894;42.768;23.404;2022-12-07T05:15:24;95582.34;;;5.91;100.00
11676;BME280;5894;42.768;23.404;2022-12-07T05:17:51;95580.50;;;5.91;100.00
11676;BME280;5894;42.768;23.404;2022-12-07T05:20:17;95593.81;;;5.95;100.00
11676;BME280;5894;42.768;23.404;2022-12-07T05:22:44;95588.38;;;5.91;100.00
11676;BME280;5894;42.768;23.404;2022-12-07T05:25:13;95590.69;;;5.87;100.00
11676;BME280;5894;42.768;23.404;2022-12-07T05:27:39;95581.28;;;5.81;100.00
11676;BME280;5894;42.768;23.404;2022-12-07T05:30:07;95573.53;;;5.61;100.00
11676;BME280;5894;42.768;23.404;2022-12-07T05:32:34;95587.41;;;5.62;100.00
11676;BME280;5894;42.768;23.404;2022-12-07T05:35:01;95592.16;;;5.60;100.00
11676;BME280;5894;42.768;23.404;2022-12-07T05:37:27;95596.81;;;5.63;100.00
11676;BME280;5894;42.768;23.404;2022-12-07T05:39:54;95591.06;;;5.66;100.00
11676;BME280;5894;42.768;23.404;2022-12-07T05:42:22;95595.03;;;5.58;100.00
11676;BME280;5894;42.768;23.404;2022-12-07T05:44:49;95600.25;;;5.58;100.00
11676;BME280;5894;42.768;23.404;2022-12-07T05:47:16;95597.38;;;5.54;100.00
11676;BME280;5894;42.768;23.404;2022-12-07T05:49:43;95590.84;;;5.57;100.00
11676;BME280;5894;42.768;23.404;2022-12-07T05:52:10;95590.88;;;5.47;100.00
11676;BME280;5894;42.768;23.404;2022-12-07T05:54:36;95593.00;;;5.40;100.00
11676;BME280;5894;42.768;23.404;2022-12-07T05:57:03;95512.69;;;4.86;100.00
11676;BME280;5894;42.768;23.404;2022-12-07T05:59:31;95587.34;;;5.18;100.00
11676;BME280;5894;42.768;23.404;2022-12-07T06:01:58;95575.56;;;5.10;100.00
11676;BME280;5894;42.768;23.404;2022-12-07T06:04:27;95550.81;;;4.87;100.00
11676;BME280;5894;42.768;23.404;2022-12-07T06:06:55;95571.97;;;4.96;100.00
11676;BME280;5894;42.768;23.404;2022-12-07T06:09:25;95556.84;;;4.88;100.00
11676;BME280;5894;42.768;23.404;2022-12-07T06:11:53;95582.13;;;5.07;100.00
11676;BME280;5894;42.768;23.404;2022-12-07T06:14:39;95583.47;;;4.95;100.00
11676;BME280;5894;42.768;23.404;2022-12-07T06:17:06;95572.47;;;4.93;100.00
11676;BME280;5894;42.768;23.404;2022-12-07T06:19:33;95571.44;;;4.94;100.00
11676;BME280;5894;42.768;23.404;2022-12-07T06:22:01;95573.78;;;4.90;100.00
11676;BME280;5894;42.768;23.404;2022-12-07T06:24:28;95566.22;;;4.89;100.00
11676;BME280;5894;42.768;23.404;2022-12-07T06:26:55;95573.56;;;4.87;100.00
11676;BME280;5894;42.768;23.404;2022-12-07T06:29:21;95562.84;;;4.83;100.00
11676;BME280;5894;42.768;23.404;2022-12-07T06:31:49;95581.38;;;4.97;100.00
11676;BME280;5894;42.768;23.404;2022-12-07T06:34:18;95585.78;;;5.06;100.00
11676;BME280;5894;42.768;23.404;2022-12-07T06:36:45;95586.56;;;5.17;100.00
11676;BME280;5894;42.768;23.404;2022-12-07T06:39:17;95551.88;;;4.86;100.00
11676;BME280;5894;42.768;23.404;2022-12-07T06:41:44;95615.03;;;5.29;100.00
11676;BME280;5894;42.768;23.404;2022-12-07T06:44:11;95593.03;;;5.35;100.00
11676;BME280;5894;42.768;23.404;2022-12-07T06:46:37;95593.50;;;5.42;100.00
11676;BME280;5894;42.768;23.404;2022-12-07T06:49:06;95601.63;;;5.45;100.00
11676;BME280;5894;42.768;23.404;2022-12-07T06:51:34;95591.41;;;5.44;100.00
11676;BME280;5894;42.768;23.404;2022-12-07T06:54:02;95600.25;;;5.58;100.00
11676;BME280;5894;42.768;23.404;2022-12-07T06:56:29;95601.28;;;5.62;100.00
11676;BME280;5894;42.768;23.404;2022-12-07T06:58:56;95604.41;;;5.64;100.00
11676;BME280;5894;42.768;23.404;2022-12-07T07:01:23;95590.03;;;5.62;100.00
11676;BME280;5894;42.768;23.404;2022-12-07T07:03:49;95599.66;;;5.71;100.00
11676;BME280;5894;42.768;23.404;2022-12-07T07:06:17;95600.44;;;5.72;100.00
11676;BME280;5894;42.768;23.404;2022-12-07T07:08:44;95599.41;;;5.73;100.00
11676;BME280;5894;42.768;23.404;2022-12-07T07:11:11;95600.22;;;5.68;100.00
11676;BME280;5894;42.768;23.404;2022-12-07T07:13:38;95611.69;;;5.72;100.00
11676;BME280;5894;42.768;23.404;2022-12-07T07:16:06;95619.53;;;5.72;100.00
11676;BME280;5894;42.768;23.404;2022-12-07T07:18:33;95610.38;;;5.75;100.00
11676;BME280;5894;42.768;23.404;2022-12-07T07:21:00;95607.25;;;5.73;100.00
11676;BME280;5894;42.768;23.404;2022-12-07T07:23:28;95602.25;;;5.76;100.00
11676;BME280;5894;42.768;23.404;2022-12-07T07:25:55;95610.06;;;5.81;100.00
11676;BME280;5894;42.768;23.404;2022-12-07T07:28:22;95612.44;;;5.88;100.00
11676;BME280;5894;42.768;23.404;2022-12-07T07:30:49;95609.53;;;5.95;100.00
11676;BME280;5894;42.768;23.404;2022-12-07T07:33:16;95611.06;;;6.01;100.00
11676;BME280;5894;42.768;23.404;2022-12-07T07:35:43;95613.66;;;6.06;100.00
11676;BME280;5894;42.768;23.404;2022-12-07T07:38:10;95618.88;;;6.11;100.00
11676;BME280;5894;42.768;23.404;2022-12-07T07:40:38;95608.63;;;6.14;100.00
11676;BME280;5894;42.768;23.404;2022-12-07T07:43:05;95606.75;;;6.20;100.00
11676;BME280;5894;42.768;23.404;2022-12-07T07:45:31;95612.00;;;6.20;100.00
11676;BME280;5894;42.768;23.404;2022-12-07T07:47:58;95609.06;;;6.26;100.00
11676;BME280;5894;42.768;23.404;2022-12-07T07:50:25;95614.56;;;6.30;100.00
11676;BME280;5894;42.768;23.404;2022-12-07T07:52:52;95605.88;;;6.35;100.00
11676;BME280;5894;42.768;23.404;2022-12-07T07:55:18;95611.09;;;6.40;100.00
11676;BME280;5894;42.768;23.404;2022-12-07T07:57:47;95605.25;;;6.48;100.00
11676;BME280;5894;42.768;23.404;2022-12-07T08:00:15;95609.97;;;6.46;100.00
11676;BME280;5894;42.768;23.404;2022-12-07T08:02:42;95607.09;;;6.47;100.00
11676;BME280;5894;42.768;23.404;2022-12-07T08:05:10;95611.81;;;6.45;100.00
11676;BME280;5894;42.768;23.404;2022-12-07T08:07:37;95606.81;;;6.49;100.00
11676;BME280;5894;42.768;23.404;2022-12-07T08:10:05;95571.63;;;6.26;100.00
11676;BME280;5894;42.768;23.404;2022-12-07T08:12:35;95619.31;;;6.57;100.00
11676;BME280;5894;42.768;23.404;2022-12-07T08:15:04;95614.56;;;6.64;100.00
11676;BME280;5894;42.768;23.404;2022-12-07T08:17:32;95607.25;;;6.61;100.00
11676;BME280;5894;42.768;23.404;2022-12-07T08:20:01;95604.84;;;6.64;100.00
11676;BME280;5894;42.768;23.404;2022-12-07T08:22:28;95604.38;;;6.62;100.00
11676;BME280;5894;42.768;23.404;2022-12-07T08:24:55;95598.28;;;6.67;100.00
11676;BME280;5894;42.768;23.404;2022-12-07T08:27:22;95604.31;;;6.68;100.00
11676;BME280;5894;42.768;23.404;2022-12-07T08:29:52;95603.22;;;6.74;100.00
11676;BME280;5894;42.768;23.404;2022-12-07T08:32:20;95604.22;;;6.78;100.00
11676;BME280;5894;42.768;23.404;2022-12-07T08:34:47;95606.53;;;6.84;100.00
11676;BME280;5894;42.768;23.404;2022-12-07T08:37:13;95602.00;;;6.90;100.00
11676;BME280;5894;42.768;23.404;2022-12-07T08:39:40;95602.75;;;6.95;100.00
11676;BME280;5894;42.768;23.404;2022-12-07T08:42:07;95600.34;;;6.99;100.00
11676;BME280;5894;42.768;23.404;2022-12-07T08:44:34;95603.72;;;7.05;100.00
11676;BME280;5894;42.768;23.404;2022-12-07T08:47:02;95604.44;;;7.10;100.00
11676;BME280;5894;42.768;23.404;2022-12-07T08:49:35;95596.31;;;7.12;100.00
11676;BME280;5894;42.768;23.404;2022-12-07T08:52:05;95597.09;;;7.12;100.00
11676;BME280;5894;42.768;23.404;2022-12-07T08:54:34;95585.31;;;7.10;100.00
11676;BME280;5894;42.768;23.404;2022-12-07T08:57:03;95589.22;;;7.12;100.00
11676;BME280;5894;42.768;23.404;2022-12-07T08:59:30;95588.88;;;7.19;100.00
11676;BME280;5894;42.768;23.404;2022-12-07T09:01:57;95596.31;;;7.12;100.00
11676;BME280;5894;42.768;23.404;2022-12-07T09:04:24;95584.22;;;7.16;100.00
11676;BME280;5894;42.768;23.404;2022-12-07T09:06:53;95580.50;;;7.17;100.00
11676;BME280;5894;42.768;23.404;2022-12-07T09:09:20;95576.28;;;7.21;100.00
11676;BME280;5894;42.768;23.404;2022-12-07T09:11:47;95562.13;;;7.17;100.00
11676;BME280;5894;42.768;23.404;2022-12-07T09:14:14;95550.97;;;7.06;100.00
11676;BME280;5894;42.768;23.404;2022-12-07T09:16:41;95560.59;;;7.16;100.00
11676;BME280;5894;42.768;23.404;2022-12-07T09:19:08;95563.00;;;7.12;100.00
11676;BME280;5894;42.768;23.404;2022-12-07T09:21:35;95571.25;;;7.24;100.00
11676;BME280;5894;42.768;23.404;2022-12-07T09:24:03;95541.28;;;7.07;100.00
11676;BME280;5894;42.768;23.404;2022-12-07T09:26:30;95566.22;;;7.04;100.00
11676;BME280;5894;42.768;23.404;2022-12-07T09:28:57;95563.69;;;7.18;100.00
11676;BME280;5894;42.768;23.404;2022-12-07T09:31:24;95557.63;;;7.22;100.00
11676;BME280;5894;42.768;23.404;2022-12-07T09:33:55;95549.41;;;7.29;100.00
11676;BME280;5894;42.768;23.404;2022-12-07T09:36:23;95553.88;;;7.28;100.00
11676;BME280;5894;42.768;23.404;2022-12-07T09:38:50;95544.91;;;7.34;100.00
11676;BME280;5894;42.768;23.404;2022-12-07T09:41:18;95537.19;;;7.43;100.00
11676;BME280;5894;42.768;23.404;2022-12-07T09:43:46;95540.44;;;7.35;100.00
11676;BME280;5894;42.768;23.404;2022-12-07T09:46:16;95539.06;;;7.37;100.00
11676;BME280;5894;42.768;23.404;2022-12-07T09:48:46;95486.81;;;7.22;100.00
11676;BME280;5894;42.768;23.404;2022-12-07T09:51:16;95542.22;;;7.58;100.00
11676;BME280;5894;42.768;23.404;2022-12-07T09:53:44;95538.22;;;7.66;100.00
11676;BME280;5894;42.768;23.404;2022-12-07T09:56:12;95529.75;;;7.69;100.00
11676;BME280;5894;42.768;23.404;2022-12-07T09:58:42;95517.59;;;7.78;100.00
11676;BME280;5894;42.768;23.404;2022-12-07T10:01:13;95493.09;;;7.64;100.00
11676;BME280;5894;42.768;23.404;2022-12-07T10:03:44;95462.38;;;7.46;100.00
11676;BME280;5894;42.768;23.404;2022-12-07T10:06:12;95528.34;;;7.95;100.00
11676;BME280;5894;42.768;23.404;2022-12-07T10:08:39;95522.16;;;8.05;100.00
11676;BME280;5894;42.768;23.404;2022-12-07T10:11:07;95518.38;;;8.11;100.00
11676;BME280;5894;42.768;23.404;2022-12-07T10:13:38;95512.84;;;8.13;100.00
11676;BME280;5894;42.768;23.404;2022-12-07T10:16:37;95499.44;;;8.14;100.00
11676;BME280;5894;42.768;23.404;2022-12-07T10:19:23;95514.34;;;8.19;100.00
11676;BME280;5894;42.768;23.404;2022-12-07T10:22:15;95496.09;;;8.27;100.00
11676;BME280;5894;42.768;23.404;2022-12-07T10:24:43;95497.59;;;8.33;100.00
11676;BME280;5894;42.768;23.404;2022-12-07T10:27:18;95493.09;;;8.34;100.00
11676;BME280;5894;42.768;23.404;2022-12-07T10:29:51;95487.41;;;8.45;100.00
11676;BME280;5894;42.768;23.404;2022-12-07T10:32:30;95497.53;;;8.52;100.00
11676;BME280;5894;42.768;23.404;2022-12-07T10:35:19;95476.81;;;8.51;100.00
11676;BME280;5894;42.768;23.404;2022-12-07T10:37:47;95472.91;;;8.48;100.00
11676;BME280;5894;42.768;23.404;2022-12-07T10:40:30;95475.03;;;8.46;100.00
11676;BME280;5894;42.768;23.404;2022-12-07T10:43:04;95463.19;;;8.49;100.00
11676;BME280;5894;42.768;23.404;2022-12-07T10:45:32;95471.44;;;8.56;100.00
11676;BME280;5894;42.768;23.404;2022-12-07T10:48:06;95471.56;;;8.51;100.00
11676;BME280;5894;42.768;23.404;2022-12-07T10:50:52;95467.19;;;8.60;100.00
11676;BME280;5894;42.768;23.404;2022-12-07T10:53:36;95466.22;;;8.69;100.00
11676;BME280;5894;42.768;23.404;2022-12-07T10:56:23;95464.47;;;8.78;100.00
11676;BME280;5894;42.768;23.404;2022-12-07T10:59:04;95457.66;;;8.91;100.00
11676;BME280;5894;42.768;23.404;2022-12-07T11:01:45;95450.16;;;8.98;100.00
11676;BME280;5894;42.768;23.404;2022-12-07T11:04:21;95445.25;;;9.05;100.00
11676;BME280;5894;42.768;23.404;2022-12-07T11:06:54;95437.09;;;9.07;100.00
11676;BME280;5894;42.768;23.404;2022-12-07T11:09:48;95433.88;;;9.24;100.00
11676;BME280;5894;42.768;23.404;2022-12-07T11:12:28;95435.59;;;9.28;100.00
11676;BME280;5894;42.768;23.404;2022-12-07T11:15:04;95431.31;;;9.32;100.00
11676;BME280;5894;42.768;23.404;2022-12-07T11:17:43;95425.56;;;9.30;100.00
11676;BME280;5894;42.768;23.404;2022-12-07T11:20:27;95422.94;;;9.16;100.00
11676;BME280;5894;42.768;23.404;2022-12-07T11:23:00;95417.28;;;9.23;100.00
11676;BME280;5894;42.768;23.404;2022-12-07T11:25:32;95422.66;;;9.18;100.00
11676;BME280;5894;42.768;23.404;2022-12-07T11:28:16;95414.34;;;9.25;100.00
11676;BME280;5894;42.768;23.404;2022-12-07T11:30:51;95409.56;;;9.27;100.00
11676;BME280;5894;42.768;23.404;2022-12-07T11:33:28;95395.53;;;9.31;100.00
11676;BME280;5894;42.768;23.404;2022-12-07T11:36:09;95389.19;;;9.32;100.00
11676;BME280;5894;42.768;23.404;2022-12-07T11:38:47;95371.16;;;9.26;100.00
11676;BME280;5894;42.768;23.404;2022-12-07T11:41:22;95379.75;;;9.31;100.00
11676;BME280;5894;42.768;23.404;2022-12-07T11:43:54;95377.75;;;9.37;100.00
11676;BME280;5894;42.768;23.404;2022-12-07T11:46:25;95375.75;;;9.34;100.00
11676;BME280;5894;42.768;23.404;2022-12-07T11:48:57;95396.88;;;9.42;100.00
11676;BME280;5894;42.768;23.404;2022-12-07T11:51:28;95386.13;;;9.52;100.00
11676;BME280;5894;42.768;23.404;2022-12-07T11:53:59;95381.97;;;9.60;100.00
11676;BME280;5894;42.768;23.404;2022-12-07T11:56:30;95380.66;;;9.71;100.00
11676;BME280;5894;42.768;23.404;2022-12-07T11:59:08;95382.56;;;9.79;100.00
11676;BME280;5894;42.768;23.404;2022-12-07T12:01:44;95380.91;;;9.83;100.00
11676;BME280;5894;42.768;23.404;2022-12-07T12:04:25;95381.25;;;9.90;100.00
11676;BME280;5894;42.768;23.404;2022-12-07T12:06:54;95367.50;;;9.93;100.00
11676;BME280;5894;42.768;23.404;2022-12-07T12:09:24;95363.50;;;9.96;100.00
11676;BME280;5894;42.768;23.404;2022-12-07T12:12:07;95360.19;;;9.90;100.00
11676;BME280;5894;42.768;23.404;2022-12-07T12:14:52;95342.97;;;9.84;100.00
11676;BME280;5894;42.768;23.404;2022-12-07T12:17:36;95340.06;;;9.94;100.00
11676;BME280;5894;42.768;23.404;2022-12-07T12:20:16;95342.09;;;9.98;100.00
11676;BME280;5894;42.768;23.404;2022-12-07T12:22:51;95341.00;;;9.99;100.00
11676;BME280;5894;42.768;23.404;2022-12-07T12:25:22;95346.56;;;9.97;100.00
11676;BME280;5894;42.768;23.404;2022-12-07T12:27:52;95343.34;;;10.00;100.00
11676;BME280;5894;42.768;23.404;2022-12-07T12:30:29;95336.88;;;10.06;100.00
11676;BME280;5894;42.768;23.404;2022-12-07T12:33:03;95335.06;;;10.15;100.00
11676;BME280;5894;42.768;23.404;2022-12-07T12:35:32;95328.59;;;10.21;100.00
11676;BME280;5894;42.768;23.404;2022-12-07T12:38:30;95332.97;;;10.26;100.00
11676;BME280;5894;42.768;23.404;2022-12-07T12:40:59;95331.56;;;10.28;100.00
11676;BME280;5894;42.768;23.404;2022-12-07T12:43:53;95333.28;;;10.33;100.00
11676;BME280;5894;42.768;23.404;2022-12-07T12:46:49;95327.91;;;10.38;100.00
11676;BME280;5894;42.768;23.404;2022-12-07T12:49:35;95323.44;;;10.47;100.00
11676;BME280;5894;42.768;23.404;2022-12-07T12:55:29;95319.72;;;10.48;100.00
11676;BME280;5894;42.768;23.404;2022-12-07T12:58:29;95327.00;;;10.51;100.00
11676;BME280;5894;42.768;23.404;2022-12-07T13:04:01;95325.34;;;10.64;100.00
11676;BME280;5894;42.768;23.404;2022-12-07T13:06:35;95326.59;;;10.66;100.00
11676;BME280;5894;42.768;23.404;2022-12-07T13:09:03;95322.22;;;10.71;100.00
11676;BME280;5894;42.768;23.404;2022-12-07T13:11:34;95327.97;;;10.73;100.00
11676;BME280;5894;42.768;23.404;2022-12-07T13:23:32;95311.38;;;10.81;100.00
11676;BME280;5894;42.768;23.404;2022-12-07T13:26:17;95313.41;;;10.84;100.00
11676;BME280;5894;42.768;23.404;2022-12-07T13:28:48;95315.09;;;10.80;100.00
11676;BME280;5894;42.768;23.404;2022-12-07T13:31:22;95310.47;;;10.85;100.00
11676;BME280;5894;42.768;23.404;2022-12-07T13:33:50;95318.41;;;10.85;100.00